Moriarty, NM

12:53 PM MST on February 24, 2017 (GMT -0700)
Moriarty

Weather History for K0E0 - May, 2014

Change the Weather History Date:

Friday, May 9, 2014

  Actual Average (KABQ) Record (KABQ)
Temperature  
Mean Temperature 46 °F -  
Max Temperature 71 °F 77 °F 91 °F (1934)
Min Temperature 21 °F 46 °F 34 °F (1930)
Degree Days  
Heating Degree Days 19    
Moisture  
Dew Point 18 °F    
Average Humidity 32    
Maximum Humidity 66    
Minimum Humidity 12    
Precipitation  
Precipitation 0.00 in - - ()
Sea Level Pressure  
Sea Level Pressure 30.06 in    
Wind  
Wind Speed 8 mph (WSW)    
Max Wind Speed 28 mph    
Max Gust Speed 37 mph    
Visibility 10 miles    
Events      
Averages and records for this station are not official NWS values.
T = Trace of Precipitation, MM = Missing Value Source: NWS Daily Summary

Daily Weather History Graph

Daily Weather History Graph

Search for Another Location

Airport or City:

Trip Planner

Search our weather history database for the weather conditions in past years. The results will help you decide how hot, cold, wet, or windy it might be!

Date:

Astronomy

May. 09, 2014 Rise Set
Actual Time 6:05 AM MDT 7:56 PM MDT
Civil Twilight 5:37 AM MDT 8:23 PM MDT
Nautical Twilight 5:04 AM MDT 8:57 PM MDT
Astronomical Twilight 4:28 AM MDT 9:32 PM MDT
Moon 3:07 PM MDT (5/9) 2:56 AM MDT (5/9)
Length of Visible Light 14h 45m
Length of Day
13h 50m
Waxing Gibbous, 74% of the Moon is Illuminated
May 9
Waxing Gibbous
May 14
Full
May 21
Last Quarter
May 28
New
Jun 5
First Quarter

Hourly Weather History & Observations

Time (MDT) Temp. Windchill Dew Point Humidity Pressure Visibility Wind Dir Wind Speed Gust Speed Precip Events Conditions
12:15 AM 32.5 °F 28.1 °F 15.6 °F 50% 30.12 in 10.0 mi ESE 4.6 mph - N/A   Clear
12:35 AM 36.3 °F - 17.6 °F 47% 30.12 in 10.0 mi Calm Calm - N/A   Clear
12:55 AM 28.6 °F 21.5 °F 13.6 °F 54% 30.11 in 10.0 mi North 6.9 mph - N/A   Clear
1:15 AM 30.4 °F 26.9 °F 14.9 °F 53% 30.11 in 10.0 mi NNE 3.5 mph - N/A   Clear
1:35 AM 28.8 °F 23.7 °F 14.9 °F 56% 30.11 in 10.0 mi NE 4.6 mph - N/A   Clear
1:55 AM 29.5 °F 23.4 °F 15.8 °F 57% 30.11 in 10.0 mi NE 5.8 mph - N/A   Clear
2:15 AM 32.0 °F 28.7 °F 17.4 °F 55% 30.10 in 10.0 mi ENE 3.5 mph - N/A   Clear
2:35 AM 30.7 °F - 16.3 °F 55% 30.09 in 10.0 mi Calm Calm - N/A   Clear
2:55 AM 27.0 °F 20.5 °F 14.4 °F 59% 30.09 in 10.0 mi NE 5.8 mph - N/A   Clear
3:15 AM 27.0 °F 21.6 °F 14.5 °F 60% 30.10 in 10.0 mi East 4.6 mph - N/A   Clear
3:35 AM 26.8 °F - 14.2 °F 59% 30.10 in 10.0 mi Calm Calm - N/A   Clear
3:55 AM 25.5 °F 21.3 °F 14.0 °F 62% 30.10 in 10.0 mi South 3.5 mph - N/A   Clear
4:15 AM 25.5 °F 18.7 °F 14.0 °F 62% 30.11 in 10.0 mi South 5.8 mph - N/A   Clear
4:35 AM 27.9 °F 24.0 °F 16.0 °F 61% 30.11 in 10.0 mi SSE 3.5 mph - N/A   Clear
4:55 AM 27.9 °F 24.0 °F 15.6 °F 60% 30.11 in 10.0 mi SSE 3.5 mph - N/A   Clear
5:15 AM 24.6 °F - 12.6 °F 60% 30.12 in 10.0 mi Calm Calm - N/A   Clear
5:35 AM 21.7 °F 14.3 °F 11.1 °F 64% 30.11 in 10.0 mi East 5.8 mph - N/A   Clear
5:55 AM 21.6 °F - 10.9 °F 64% 30.11 in 10.0 mi Calm Calm - N/A   Clear
6:15 AM 21.2 °F - 11.3 °F 66% 30.12 in 10.0 mi Calm Calm - N/A   Clear
6:35 AM 23.9 °F - 13.1 °F 63% 30.12 in 10.0 mi Calm Calm - N/A   Clear
6:55 AM 28.4 °F - 14.4 °F 56% 30.13 in 10.0 mi Calm Calm - N/A   Clear
7:15 AM 32.0 °F - 15.8 °F 51% 30.13 in 10.0 mi Calm Calm - N/A   Clear
7:35 AM 34.3 °F - 16.7 °F 49% 30.13 in 10.0 mi Calm Calm - N/A   Clear
7:55 AM 38.1 °F - 18.1 °F 45% 30.13 in 10.0 mi Calm Calm - N/A   Clear
8:15 AM 43.0 °F 41.3 °F 19.2 °F 39% 30.13 in 10.0 mi SSE 3.5 mph - N/A   Clear
8:35 AM 46.8 °F - 19.4 °F 34% 30.14 in 10.0 mi South 5.8 mph - N/A   Clear
8:55 AM 48.6 °F - 19.6 °F 32% 30.13 in 10.0 mi SSW 5.8 mph - N/A   Clear
9:15 AM 50.9 °F - 21.4 °F 31% 30.13 in 10.0 mi SSW 8.1 mph - N/A   Clear
9:35 AM 54.9 °F - 22.1 °F 28% 30.12 in 10.0 mi WSW 8.1 mph - N/A   Clear
9:55 AM 57.6 °F - 23.0 °F 26% 30.12 in 10.0 mi West 8.1 mph 16.1 mph N/A   Clear
10:15 AM 59.0 °F - 23.2 °F 25% 30.12 in 10.0 mi West 12.7 mph 17.3 mph N/A   Clear
10:35 AM 60.8 °F - 23.9 °F 24% 30.11 in 10.0 mi West 16.1 mph 23.0 mph N/A   Clear
10:55 AM 61.0 °F - 22.6 °F 23% 30.11 in 10.0 mi WSW 17.3 mph 25.3 mph N/A   Clear
11:15 AM 61.7 °F - 23.0 °F 23% 30.11 in 10.0 mi West 17.3 mph 23.0 mph N/A   Clear
11:35 AM 63.0 °F - 22.3 °F 21% 30.10 in 10.0 mi WSW 17.3 mph 26.5 mph N/A   Clear
11:55 AM 64.0 °F - 21.0 °F 19% 30.10 in 10.0 mi WSW 21.9 mph 27.6 mph N/A   Clear
12:15 PM 64.4 °F - 20.8 °F 19% 30.10 in 10.0 mi West 20.7 mph 25.3 mph N/A   Clear
12:35 PM 64.8 °F - 20.3 °F 18% 30.08 in 10.0 mi West 15.0 mph 26.5 mph N/A   Clear
12:55 PM 64.6 °F - 21.2 °F 19% 30.08 in 10.0 mi WSW 21.9 mph 29.9 mph N/A   Clear
1:15 PM 65.1 °F - 20.8 °F 18% 30.07 in 10.0 mi West 25.3 mph 29.9 mph N/A   Clear
1:35 PM 65.8 °F - 21.0 °F 18% 30.06 in 10.0 mi WSW 26.5 mph 33.4 mph N/A   Clear
1:55 PM 67.3 °F - 20.3 °F 17% 30.05 in 10.0 mi WSW 26.5 mph 33.4 mph N/A   Clear
2:15 PM 67.8 °F - 20.8 °F 17% 30.04 in 10.0 mi WSW 16.1 mph 29.9 mph N/A   Clear
2:35 PM 68.9 °F - 20.1 °F 16% 30.02 in 10.0 mi WSW 13.8 mph 21.9 mph N/A   Clear
2:55 PM 69.3 °F - 19.4 °F 15% 30.02 in 10.0 mi West 21.9 mph 31.1 mph N/A   Clear
3:15 PM 70.0 °F - 19.6 °F 15% 30.01 in 10.0 mi West 21.9 mph 32.2 mph N/A   Clear
3:35 PM 70.3 °F - 18.7 °F 14% 30.00 in 10.0 mi WSW 23.0 mph 36.8 mph N/A   Clear
3:55 PM 71.2 °F - 18.3 °F 13% 29.99 in 10.0 mi West 25.3 mph 36.8 mph N/A   Clear
4:15 PM 70.9 °F - 17.4 °F 13% 29.98 in 10.0 mi WSW 27.6 mph 34.5 mph N/A   Clear
4:35 PM 71.2 °F - 17.4 °F 13% 29.98 in 10.0 mi WSW 20.7 mph 29.9 mph N/A   Clear
4:55 PM 71.6 °F - 16.5 °F 12% 29.97 in 10.0 mi WSW 21.9 mph 33.4 mph N/A   Clear
5:15 PM 71.1 °F - 16.2 °F 12% 29.96 in 10.0 mi WSW 17.3 mph 26.5 mph N/A   Clear
5:35 PM 71.4 °F - 15.8 °F 12% 29.96 in 10.0 mi WSW 23.0 mph 28.8 mph N/A   Clear
5:55 PM 71.4 °F - 16.3 °F 12% 29.96 in 10.0 mi West 20.7 mph 28.8 mph N/A   Clear
6:15 PM 70.7 °F - 16.7 °F 13% 29.96 in 10.0 mi West 25.3 mph 31.1 mph N/A   Clear
6:35 PM 69.8 °F - 17.2 °F 13% 29.96 in 10.0 mi West 23.0 mph 28.8 mph N/A   Clear
6:55 PM 68.9 °F - 17.6 °F 14% 29.96 in 10.0 mi West 16.1 mph - N/A   Clear
7:15 PM 67.6 °F - 17.6 °F 15% 29.96 in 10.0 mi West 16.1 mph 25.3 mph N/A   Clear
7:35 PM 66.2 °F - 17.6 °F 15% 29.97 in 10.0 mi West 16.1 mph 20.7 mph N/A   Clear
7:55 PM 63.9 °F - 17.2 °F 17% 29.98 in 10.0 mi West 9.2 mph - N/A   Clear
8:15 PM 62.6 °F - 17.1 °F 17% 29.98 in 10.0 mi West 11.5 mph - N/A   Clear
8:35 PM 60.1 °F - 16.7 °F 18% 29.98 in 10.0 mi West 11.5 mph - N/A   Clear
8:55 PM 59.2 °F - 17.2 °F 20% 29.99 in 10.0 mi West 11.5 mph - N/A   Clear
9:15 PM 57.6 °F - 17.2 °F 21% 29.99 in 10.0 mi West 10.4 mph - N/A   Clear
9:35 PM 56.5 °F - 17.4 °F 22% 29.99 in 10.0 mi West 10.4 mph - N/A   Clear
9:55 PM 54.3 °F - 17.4 °F 23% 30.00 in 10.0 mi West 10.4 mph - N/A   Clear
10:15 PM 53.4 °F - 17.6 °F 24% 30.01 in 10.0 mi West 10.4 mph - N/A   Clear
10:35 PM 55.0 °F - 18.0 °F 23% 30.01 in 10.0 mi South 3.5 mph - N/A   Clear
10:55 PM 48.9 °F - 16.7 °F 28% 30.01 in 10.0 mi East 3.5 mph - N/A   Clear
11:15 PM 49.3 °F - 16.9 °F 28% 30.01 in 10.0 mi South 3.5 mph - N/A   Clear
11:35 PM 45.9 °F 44.6 °F 16.2 °F 30% 30.02 in 10.0 mi WSW 3.5 mph - N/A   Clear
11:55 PM 46.9 °F - 16.2 °F 29% 30.02 in 10.0 mi Calm Calm - N/A   Clear